sensor_id;sensor_type;location;lat;lon;timestamp;temperature;humidity
9209;DHT22;4639;48.862;9.188;2024-01-27T00:00:25;4.50;99.90
9209;DHT22;4639;48.862;9.188;2024-01-27T00:02:51;4.80;99.90
9209;DHT22;4639;48.862;9.188;2024-01-27T00:05:17;4.80;99.90
9209;DHT22;4639;48.862;9.188;2024-01-27T00:07:43;4.80;99.90
9209;DHT22;4639;48.862;9.188;2024-01-27T00:10:08;4.80;99.90
9209;DHT22;4639;48.862;9.188;2024-01-27T00:12:34;4.70;99.90
9209;DHT22;4639;48.862;9.188;2024-01-27T00:15:00;4.60;99.90
9209;DHT22;4639;48.862;9.188;2024-01-27T00:17:26;4.50;99.90
9209;DHT22;4639;48.862;9.188;2024-01-27T00:19:53;4.40;99.90
9209;DHT22;4639;48.862;9.188;2024-01-27T00:22:19;4.40;99.90
9209;DHT22;4639;48.862;9.188;2024-01-27T00:24:46;4.40;99.90
9209;DHT22;4639;48.862;9.188;2024-01-27T00:27:14;4.30;99.90
9209;DHT22;4639;48.862;9.188;2024-01-27T00:29:40;4.40;99.90
9209;DHT22;4639;48.862;9.188;2024-01-27T00:32:06;4.40;99.90
9209;DHT22;4639;48.862;9.188;2024-01-27T00:34:31;4.30;99.90
9209;DHT22;4639;48.862;9.188;2024-01-27T00:36:57;4.30;99.90
9209;DHT22;4639;48.862;9.188;2024-01-27T00:39:22;4.30;99.90
9209;DHT22;4639;48.862;9.188;2024-01-27T00:41:48;4.40;99.90
9209;DHT22;4639;48.862;9.188;2024-01-27T00:44:14;4.40;99.90
9209;DHT22;4639;48.862;9.188;2024-01-27T00:46:39;4.40;99.90
9209;DHT22;4639;48.862;9.188;2024-01-27T00:49:05;4.30;99.90
9209;DHT22;4639;48.862;9.188;2024-01-27T00:51:31;4.20;99.90
9209;DHT22;4639;48.862;9.188;2024-01-27T00:53:56;4.20;99.90
9209;DHT22;4639;48.862;9.188;2024-01-27T00:56:22;4.30;99.90
9209;DHT22;4639;48.862;9.188;2024-01-27T00:58:47;4.20;99.90
9209;DHT22;4639;48.862;9.188;2024-01-27T01:01:13;4.30;99.90
9209;DHT22;4639;48.862;9.188;2024-01-27T01:03:39;4.40;99.90
9209;DHT22;4639;48.862;9.188;2024-01-27T01:06:04;4.40;99.90
9209;DHT22;4639;48.862;9.188;2024-01-27T01:08:31;4.30;99.90
9209;DHT22;4639;48.862;9.188;2024-01-27T01:10:57;4.20;99.90
9209;DHT22;4639;48.862;9.188;2024-01-27T01:13:23;4.10;99.90
9209;DHT22;4639;48.862;9.188;2024-01-27T01:15:48;4.10;99.90
9209;DHT22;4639;48.862;9.188;2024-01-27T01:18:14;4.20;99.90
9209;DHT22;4639;48.862;9.188;2024-01-27T01:20:40;4.10;99.90
9209;DHT22;4639;48.862;9.188;2024-01-27T01:23:06;4.10;99.90
9209;DHT22;4639;48.862;9.188;2024-01-27T01:25:31;4.20;99.90
9209;DHT22;4639;48.862;9.188;2024-01-27T01:27:57;4.10;99.90
9209;DHT22;4639;48.862;9.188;2024-01-27T01:30:23;4.10;99.90
9209;DHT22;4639;48.862;9.188;2024-01-27T01:32:48;4.10;99.90
9209;DHT22;4639;48.862;9.188;2024-01-27T01:35:14;4.00;99.90
9209;DHT22;4639;48.862;9.188;2024-01-27T01:37:40;4.00;99.90
9209;DHT22;4639;48.862;9.188;2024-01-27T01:40:06;4.10;99.90
9209;DHT22;4639;48.862;9.188;2024-01-27T01:42:32;4.10;99.90
9209;DHT22;4639;48.862;9.188;2024-01-27T01:44:58;4.10;99.90
9209;DHT22;4639;48.862;9.188;2024-01-27T01:47:23;4.20;99.90
9209;DHT22;4639;48.862;9.188;2024-01-27T01:49:49;4.10;99.90
9209;DHT22;4639;48.862;9.188;2024-01-27T01:52:15;4.00;99.90
9209;DHT22;4639;48.862;9.188;2024-01-27T01:54:48;3.90;99.90
9209;DHT22;4639;48.862;9.188;2024-01-27T01:57:13;3.80;99.90
9209;DHT22;4639;48.862;9.188;2024-01-27T01:59:39;3.70;99.90
9209;DHT22;4639;48.862;9.188;2024-01-27T02:02:06;3.60;99.90
9209;DHT22;4639;48.862;9.188;2024-01-27T02:04:42;3.70;99.90
9209;DHT22;4639;48.862;9.188;2024-01-27T02:07:09;3.70;99.90
9209;DHT22;4639;48.862;9.188;2024-01-27T02:09:34;3.70;99.90
9209;DHT22;4639;48.862;9.188;2024-01-27T02:12:01;3.70;99.90
9209;DHT22;4639;48.862;9.188;2024-01-27T02:14:26;3.80;99.90
9209;DHT22;4639;48.862;9.188;2024-01-27T02:16:53;3.70;99.90
9209;DHT22;4639;48.862;9.188;2024-01-27T02:19:19;3.70;99.90
9209;DHT22;4639;48.862;9.188;2024-01-27T02:21:44;3.70;99.90
9209;DHT22;4639;48.862;9.188;2024-01-27T02:24:10;3.60;99.90
9209;DHT22;4639;48.862;9.188;2024-01-27T02:26:36;3.60;99.90
9209;DHT22;4639;48.862;9.188;2024-01-27T02:29:02;3.60;99.90
9209;DHT22;4639;48.862;9.188;2024-01-27T02:31:28;3.60;99.90
9209;DHT22;4639;48.862;9.188;2024-01-27T02:33:54;3.60;99.90
9209;DHT22;4639;48.862;9.188;2024-01-27T02:36:19;3.70;99.90
9209;DHT22;4639;48.862;9.188;2024-01-27T02:38:45;3.70;99.90
9209;DHT22;4639;48.862;9.188;2024-01-27T02:41:10;3.60;99.90
9209;DHT22;4639;48.862;9.188;2024-01-27T02:43:37;3.60;99.90
9209;DHT22;4639;48.862;9.188;2024-01-27T02:46:03;3.70;99.90
9209;DHT22;4639;48.862;9.188;2024-01-27T02:48:29;3.70;99.90
9209;DHT22;4639;48.862;9.188;2024-01-27T02:50:54;3.60;99.90
9209;DHT22;4639;48.862;9.188;2024-01-27T02:53:20;3.60;99.90
9209;DHT22;4639;48.862;9.188;2024-01-27T02:55:46;3.70;99.90
9209;DHT22;4639;48.862;9.188;2024-01-27T02:58:11;3.60;99.90
9209;DHT22;4639;48.862;9.188;2024-01-27T03:00:37;3.70;99.90
9209;DHT22;4639;48.862;9.188;2024-01-27T03:03:03;3.70;99.90
9209;DHT22;4639;48.862;9.188;2024-01-27T03:05:28;3.60;99.90
9209;DHT22;4639;48.862;9.188;2024-01-27T03:07:57;3.60;99.90
9209;DHT22;4639;48.862;9.188;2024-01-27T03:10:23;3.60;99.90
9209;DHT22;4639;48.862;9.188;2024-01-27T03:12:48;3.70;99.90
9209;DHT22;4639;48.862;9.188;2024-01-27T03:15:14;3.70;99.90
9209;DHT22;4639;48.862;9.188;2024-01-27T03:17:40;3.70;99.90
9209;DHT22;4639;48.862;9.188;2024-01-27T03:20:06;3.70;99.90
9209;DHT22;4639;48.862;9.188;2024-01-27T03:22:33;3.70;99.90
9209;DHT22;4639;48.862;9.188;2024-01-27T03:24:59;3.80;99.90
9209;DHT22;4639;48.862;9.188;2024-01-27T03:27:25;3.90;99.90
9209;DHT22;4639;48.862;9.188;2024-01-27T03:29:50;3.90;99.90
9209;DHT22;4639;48.862;9.188;2024-01-27T03:32:16;3.90;99.90
9209;DHT22;4639;48.862;9.188;2024-01-27T03:34:44;3.90;99.90
9209;DHT22;4639;48.862;9.188;2024-01-27T03:37:11;3.90;99.90
9209;DHT22;4639;48.862;9.188;2024-01-27T03:39:36;3.90;99.90
9209;DHT22;4639;48.862;9.188;2024-01-27T03:42:02;3.90;99.90
9209;DHT22;4639;48.862;9.188;2024-01-27T03:44:28;3.90;99.90
9209;DHT22;4639;48.862;9.188;2024-01-27T03:46:53;3.80;99.90
9209;DHT22;4639;48.862;9.188;2024-01-27T03:49:19;3.70;99.90
9209;DHT22;4639;48.862;9.188;2024-01-27T03:51:44;3.70;99.90
9209;DHT22;4639;48.862;9.188;2024-01-27T03:54:10;3.70;99.90
9209;DHT22;4639;48.862;9.188;2024-01-27T03:56:35;3.60;99.90
9209;DHT22;4639;48.862;9.188;2024-01-27T03:59:01;3.60;99.90
9209;DHT22;4639;48.862;9.188;2024-01-27T04:01:29;3.60;99.90
9209;DHT22;4639;48.862;9.188;2024-01-27T04:03:54;3.50;99.90
9209;DHT22;4639;48.862;9.188;2024-01-27T04:06:20;3.50;99.90
9209;DHT22;4639;48.862;9.188;2024-01-27T04:08:45;3.30;99.90
9209;DHT22;4639;48.862;9.188;2024-01-27T04:11:22;3.20;99.90
9209;DHT22;4639;48.862;9.188;2024-01-27T04:13:49;3.20;99.90
9209;DHT22;4639;48.862;9.188;2024-01-27T04:16:15;3.20;99.90
9209;DHT22;4639;48.862;9.188;2024-01-27T04:18:42;3.10;99.90
9209;DHT22;4639;48.862;9.188;2024-01-27T04:21:07;3.10;99.90
9209;DHT22;4639;48.862;9.188;2024-01-27T04:23:33;2.90;99.90
9209;DHT22;4639;48.862;9.188;2024-01-27T04:25:59;2.90;99.90
9209;DHT22;4639;48.862;9.188;2024-01-27T04:28:25;3.00;99.90
9209;DHT22;4639;48.862;9.188;2024-01-27T04:30:50;2.90;99.90
9209;DHT22;4639;48.862;9.188;2024-01-27T04:33:16;2.80;99.90
9209;DHT22;4639;48.862;9.188;2024-01-27T04:35:41;2.90;99.90
9209;DHT22;4639;48.862;9.188;2024-01-27T04:38:10;2.90;99.90
9209;DHT22;4639;48.862;9.188;2024-01-27T04:40:36;3.00;99.90
9209;DHT22;4639;48.862;9.188;2024-01-27T04:43:01;3.00;99.90
9209;DHT22;4639;48.862;9.188;2024-01-27T04:45:28;3.00;99.90
9209;DHT22;4639;48.862;9.188;2024-01-27T04:47:54;2.90;99.90
9209;DHT22;4639;48.862;9.188;2024-01-27T04:50:20;2.90;99.90
9209;DHT22;4639;48.862;9.188;2024-01-27T04:52:46;2.70;99.90
9209;DHT22;4639;48.862;9.188;2024-01-27T04:55:12;2.70;99.90
9209;DHT22;4639;48.862;9.188;2024-01-27T04:57:38;2.70;99.90
9209;DHT22;4639;48.862;9.188;2024-01-27T05:00:04;2.70;99.90
9209;DHT22;4639;48.862;9.188;2024-01-27T05:02:33;2.70;99.90
9209;DHT22;4639;48.862;9.188;2024-01-27T05:04:59;2.70;99.90
9209;DHT22;4639;48.862;9.188;2024-01-27T05:07:24;2.70;99.90
9209;DHT22;4639;48.862;9.188;2024-01-27T05:09:50;2.60;99.90
9209;DHT22;4639;48.862;9.188;2024-01-27T05:12:16;2.70;99.90
9209;DHT22;4639;48.862;9.188;2024-01-27T05:14:45;2.70;99.90
9209;DHT22;4639;48.862;9.188;2024-01-27T05:17:11;2.70;99.90
9209;DHT22;4639;48.862;9.188;2024-01-27T05:19:36;2.60;99.90
9209;DHT22;4639;48.862;9.188;2024-01-27T05:22:02;2.60;99.90
9209;DHT22;4639;48.862;9.188;2024-01-27T05:24:27;2.60;99.90
9209;DHT22;4639;48.862;9.188;2024-01-27T05:26:53;2.60;99.90
9209;DHT22;4639;48.862;9.188;2024-01-27T05:29:19;2.60;99.90
9209;DHT22;4639;48.862;9.188;2024-01-27T05:31:44;2.50;99.90
9209;DHT22;4639;48.862;9.188;2024-01-27T05:34:10;2.40;99.90
9209;DHT22;4639;48.862;9.188;2024-01-27T05:36:36;2.40;99.90
9209;DHT22;4639;48.862;9.188;2024-01-27T05:39:02;2.30;99.90
9209;DHT22;4639;48.862;9.188;2024-01-27T05:41:30;2.30;99.90
9209;DHT22;4639;48.862;9.188;2024-01-27T05:43:56;2.20;99.90
9209;DHT22;4639;48.862;9.188;2024-01-27T05:46:25;2.20;99.90
9209;DHT22;4639;48.862;9.188;2024-01-27T05:48:51;2.30;99.90
9209;DHT22;4639;48.862;9.188;2024-01-27T05:51:19;2.30;99.90
9209;DHT22;4639;48.862;9.188;2024-01-27T05:53:45;2.20;99.90
9209;DHT22;4639;48.862;9.188;2024-01-27T05:56:10;2.20;99.90
9209;DHT22;4639;48.862;9.188;2024-01-27T05:58:37;2.10;99.90
9209;DHT22;4639;48.862;9.188;2024-01-27T06:01:02;2.10;99.90
9209;DHT22;4639;48.862;9.188;2024-01-27T06:03:28;2.10;99.90
9209;DHT22;4639;48.862;9.188;2024-01-27T06:05:54;2.10;99.90
9209;DHT22;4639;48.862;9.188;2024-01-27T06:08:19;2.10;99.90
9209;DHT22;4639;48.862;9.188;2024-01-27T06:10:46;2.10;99.90
9209;DHT22;4639;48.862;9.188;2024-01-27T06:13:11;2.30;99.90
9209;DHT22;4639;48.862;9.188;2024-01-27T06:15:37;2.10;99.90
9209;DHT22;4639;48.862;9.188;2024-01-27T06:18:03;2.00;99.90
9209;DHT22;4639;48.862;9.188;2024-01-27T06:20:28;2.00;99.90
9209;DHT22;4639;48.862;9.188;2024-01-27T06:22:54;2.00;99.90
9209;DHT22;4639;48.862;9.188;2024-01-27T06:25:20;2.00;99.90
9209;DHT22;4639;48.862;9.188;2024-01-27T06:27:46;1.80;99.90
9209;DHT22;4639;48.862;9.188;2024-01-27T06:30:12;1.80;99.90
9209;DHT22;4639;48.862;9.188;2024-01-27T06:32:38;1.70;99.90
9209;DHT22;4639;48.862;9.188;2024-01-27T06:35:04;1.80;99.90
9209;DHT22;4639;48.862;9.188;2024-01-27T06:37:30;1.80;99.90
9209;DHT22;4639;48.862;9.188;2024-01-27T06:39:56;1.90;99.90
9209;DHT22;4639;48.862;9.188;2024-01-27T06:42:21;1.90;99.90
9209;DHT22;4639;48.862;9.188;2024-01-27T06:44:47;1.90;99.90
9209;DHT22;4639;48.862;9.188;2024-01-27T06:47:12;2.00;99.90
9209;DHT22;4639;48.862;9.188;2024-01-27T06:49:38;2.10;99.90
9209;DHT22;4639;48.862;9.188;2024-01-27T06:52:04;1.90;99.90
9209;DHT22;4639;48.862;9.188;2024-01-27T06:54:30;1.90;99.90
9209;DHT22;4639;48.862;9.188;2024-01-27T06:56:55;1.90;99.90
9209;DHT22;4639;48.862;9.188;2024-01-27T06:59:21;1.90;99.90
9209;DHT22;4639;48.862;9.188;2024-01-27T07:01:49;1.90;99.90
9209;DHT22;4639;48.862;9.188;2024-01-27T07:04:15;1.90;99.90
9209;DHT22;4639;48.862;9.188;2024-01-27T07:06:41;1.80;99.90
9209;DHT22;4639;48.862;9.188;2024-01-27T07:09:06;1.80;99.90
9209;DHT22;4639;48.862;9.188;2024-01-27T07:11:32;1.80;99.90
9209;DHT22;4639;48.862;9.188;2024-01-27T07:13:58;1.80;99.90
9209;DHT22;4639;48.862;9.188;2024-01-27T07:16:24;1.80;99.90
9209;DHT22;4639;48.862;9.188;2024-01-27T07:18:50;1.80;99.90
9209;DHT22;4639;48.862;9.188;2024-01-27T07:21:17;1.80;99.90
9209;DHT22;4639;48.862;9.188;2024-01-27T07:23:43;1.70;99.90
9209;DHT22;4639;48.862;9.188;2024-01-27T07:26:12;1.70;99.90
9209;DHT22;4639;48.862;9.188;2024-01-27T07:28:38;1.70;99.90
9209;DHT22;4639;48.862;9.188;2024-01-27T07:31:05;1.70;99.90
9209;DHT22;4639;48.862;9.188;2024-01-27T07:33:31;1.70;99.90
9209;DHT22;4639;48.862;9.188;2024-01-27T07:35:56;1.80;99.90
9209;DHT22;4639;48.862;9.188;2024-01-27T07:38:22;1.80;99.90
9209;DHT22;4639;48.862;9.188;2024-01-27T07:40:48;1.90;99.90
9209;DHT22;4639;48.862;9.188;2024-01-27T07:43:13;1.80;99.90
9209;DHT22;4639;48.862;9.188;2024-01-27T07:45:39;1.80;99.90
9209;DHT22;4639;48.862;9.188;2024-01-27T07:48:05;1.90;99.90
9209;DHT22;4639;48.862;9.188;2024-01-27T07:50:30;2.20;99.90
9209;DHT22;4639;48.862;9.188;2024-01-27T07:52:57;2.70;99.90
9209;DHT22;4639;48.862;9.188;2024-01-27T07:55:22;2.80;99.90
9209;DHT22;4639;48.862;9.188;2024-01-27T07:57:48;3.00;99.90
9209;DHT22;4639;48.862;9.188;2024-01-27T08:00:14;3.20;99.90
9209;DHT22;4639;48.862;9.188;2024-01-27T08:02:40;3.50;99.90
9209;DHT22;4639;48.862;9.188;2024-01-27T08:05:05;3.90;99.90
9209;DHT22;4639;48.862;9.188;2024-01-27T08:07:31;4.40;99.90
9209;DHT22;4639;48.862;9.188;2024-01-27T08:09:57;4.60;99.90
9209;DHT22;4639;48.862;9.188;2024-01-27T08:12:23;4.90;99.90
9209;DHT22;4639;48.862;9.188;2024-01-27T08:14:49;5.20;99.90
9209;DHT22;4639;48.862;9.188;2024-01-27T08:17:15;5.70;99.90
9209;DHT22;4639;48.862;9.188;2024-01-27T08:19:41;6.00;99.90
9209;DHT22;4639;48.862;9.188;2024-01-27T08:22:06;6.00;99.90
9209;DHT22;4639;48.862;9.188;2024-01-27T08:24:34;6.10;99.90
9209;DHT22;4639;48.862;9.188;2024-01-27T08:27:00;5.90;99.90
9209;DHT22;4639;48.862;9.188;2024-01-27T08:29:26;6.20;99.90
9209;DHT22;4639;48.862;9.188;2024-01-27T08:31:52;6.60;99.90
9209;DHT22;4639;48.862;9.188;2024-01-27T08:34:17;6.90;99.90
9209;DHT22;4639;48.862;9.188;2024-01-27T08:36:43;7.10;99.90
9209;DHT22;4639;48.862;9.188;2024-01-27T08:39:09;7.20;99.90
9209;DHT22;4639;48.862;9.188;2024-01-27T08:41:34;6.90;99.90
9209;DHT22;4639;48.862;9.188;2024-01-27T08:44:00;6.80;99.90
9209;DHT22;4639;48.862;9.188;2024-01-27T08:46:25;6.90;99.90
9209;DHT22;4639;48.862;9.188;2024-01-27T08:48:51;7.10;99.90
9209;DHT22;4639;48.862;9.188;2024-01-27T08:51:17;7.20;99.90
9209;DHT22;4639;48.862;9.188;2024-01-27T08:53:44;7.30;99.90
9209;DHT22;4639;48.862;9.188;2024-01-27T08:56:17;7.60;99.90
9209;DHT22;4639;48.862;9.188;2024-01-27T08:58:46;7.90;99.90
9209;DHT22;4639;48.862;9.188;2024-01-27T09:01:13;8.10;99.90
9209;DHT22;4639;48.862;9.188;2024-01-27T09:03:40;8.40;99.90
9209;DHT22;4639;48.862;9.188;2024-01-27T09:06:07;8.20;99.90
9209;DHT22;4639;48.862;9.188;2024-01-27T09:08:35;8.10;99.90
9209;DHT22;4639;48.862;9.188;2024-01-27T09:11:02;7.70;99.90
9209;DHT22;4639;48.862;9.188;2024-01-27T09:13:28;7.70;99.90
9209;DHT22;4639;48.862;9.188;2024-01-27T09:15:53;7.80;99.90
9209;DHT22;4639;48.862;9.188;2024-01-27T09:18:19;8.00;99.90
9209;DHT22;4639;48.862;9.188;2024-01-27T09:20:45;8.20;99.90
9209;DHT22;4639;48.862;9.188;2024-01-27T09:23:10;8.40;99.90
9209;DHT22;4639;48.862;9.188;2024-01-27T09:25:37;8.70;99.90
9209;DHT22;4639;48.862;9.188;2024-01-27T09:28:02;9.10;99.90
9209;DHT22;4639;48.862;9.188;2024-01-27T09:30:28;9.50;99.90
9209;DHT22;4639;48.862;9.188;2024-01-27T09:32:54;9.70;99.90
9209;DHT22;4639;48.862;9.188;2024-01-27T09:35:20;9.70;99.90
9209;DHT22;4639;48.862;9.188;2024-01-27T09:37:46;9.90;99.90
9209;DHT22;4639;48.862;9.188;2024-01-27T09:40:12;9.60;99.90
9209;DHT22;4639;48.862;9.188;2024-01-27T09:42:38;9.20;99.90
9209;DHT22;4639;48.862;9.188;2024-01-27T09:45:08;8.60;99.90
9209;DHT22;4639;48.862;9.188;2024-01-27T09:47:34;8.10;99.90
9209;DHT22;4639;48.862;9.188;2024-01-27T09:50:00;8.30;99.90
9209;DHT22;4639;48.862;9.188;2024-01-27T09:52:26;8.90;99.90
9209;DHT22;4639;48.862;9.188;2024-01-27T09:54:52;9.30;99.90
9209;DHT22;4639;48.862;9.188;2024-01-27T09:57:17;9.70;99.90
9209;DHT22;4639;48.862;9.188;2024-01-27T09:59:46;9.80;99.90
9209;DHT22;4639;48.862;9.188;2024-01-27T10:02:14;10.00;99.90
9209;DHT22;4639;48.862;9.188;2024-01-27T10:04:41;10.10;99.90
9209;DHT22;4639;48.862;9.188;2024-01-27T10:07:07;10.40;99.90
9209;DHT22;4639;48.862;9.188;2024-01-27T10:09:33;10.80;99.90
9209;DHT22;4639;48.862;9.188;2024-01-27T10:12:00;11.10;99.90
9209;DHT22;4639;48.862;9.188;2024-01-27T10:14:38;11.40;99.90
9209;DHT22;4639;48.862;9.188;2024-01-27T10:17:04;11.90;99.90
9209;DHT22;4639;48.862;9.188;2024-01-27T10:19:30;11.80;99.90
9209;DHT22;4639;48.862;9.188;2024-01-27T10:22:02;11.80;99.90
9209;DHT22;4639;48.862;9.188;2024-01-27T10:24:28;12.00;99.90
9209;DHT22;4639;48.862;9.188;2024-01-27T10:27:04;11.80;99.90
9209;DHT22;4639;48.862;9.188;2024-01-27T10:29:32;11.40;99.90
9209;DHT22;4639;48.862;9.188;2024-01-27T10:32:08;11.30;99.90
9209;DHT22;4639;48.862;9.188;2024-01-27T10:34:37;11.40;99.90
9209;DHT22;4639;48.862;9.188;2024-01-27T10:37:02;11.40;99.90
9209;DHT22;4639;48.862;9.188;2024-01-27T10:39:28;11.20;99.90
9209;DHT22;4639;48.862;9.188;2024-01-27T10:41:54;11.20;99.90
9209;DHT22;4639;48.862;9.188;2024-01-27T10:44:20;11.30;99.90
9209;DHT22;4639;48.862;9.188;2024-01-27T10:46:47;11.30;99.90
9209;DHT22;4639;48.862;9.188;2024-01-27T10:49:14;11.10;99.90
9209;DHT22;4639;48.862;9.188;2024-01-27T10:51:54;11.00;99.90
9209;DHT22;4639;48.862;9.188;2024-01-27T10:54:27;10.80;99.90
9209;DHT22;4639;48.862;9.188;2024-01-27T10:56:56;10.80;99.90
9209;DHT22;4639;48.862;9.188;2024-01-27T10:59:23;11.10;99.90
9209;DHT22;4639;48.862;9.188;2024-01-27T11:01:51;11.60;99.90
9209;DHT22;4639;48.862;9.188;2024-01-27T11:04:19;11.60;99.90
9209;DHT22;4639;48.862;9.188;2024-01-27T11:06:45;11.50;99.90
9209;DHT22;4639;48.862;9.188;2024-01-27T11:09:12;11.30;99.90
9209;DHT22;4639;48.862;9.188;2024-01-27T11:11:40;11.40;99.90
9209;DHT22;4639;48.862;9.188;2024-01-27T11:14:07;11.80;99.90
9209;DHT22;4639;48.862;9.188;2024-01-27T11:16:35;12.00;99.90
9209;DHT22;4639;48.862;9.188;2024-01-27T11:19:01;12.10;99.90
9209;DHT22;4639;48.862;9.188;2024-01-27T11:21:27;12.10;99.90
9209;DHT22;4639;48.862;9.188;2024-01-27T11:23:53;12.00;99.90
9209;DHT22;4639;48.862;9.188;2024-01-27T11:26:22;11.80;99.90
9209;DHT22;4639;48.862;9.188;2024-01-27T11:28:51;11.80;99.90
9209;DHT22;4639;48.862;9.188;2024-01-27T11:31:18;11.80;99.90
9209;DHT22;4639;48.862;9.188;2024-01-27T11:33:47;12.00;99.90
9209;DHT22;4639;48.862;9.188;2024-01-27T11:36:23;11.90;99.90
9209;DHT22;4639;48.862;9.188;2024-01-27T11:38:50;11.80;99.90
9209;DHT22;4639;48.862;9.188;2024-01-27T11:41:26;11.80;99.90
9209;DHT22;4639;48.862;9.188;2024-01-27T11:43:53;11.70;99.90
9209;DHT22;4639;48.862;9.188;2024-01-27T11:46:19;11.70;99.90
9209;DHT22;4639;48.862;9.188;2024-01-27T11:48:45;11.70;99.90
9209;DHT22;4639;48.862;9.188;2024-01-27T11:51:12;11.80;99.90
9209;DHT22;4639;48.862;9.188;2024-01-27T11:53:38;12.00;99.90
9209;DHT22;4639;48.862;9.188;2024-01-27T11:56:04;12.10;99.90
9209;DHT22;4639;48.862;9.188;2024-01-27T11:58:33;11.80;99.90
9209;DHT22;4639;48.862;9.188;2024-01-27T12:00:59;11.00;99.90
9209;DHT22;4639;48.862;9.188;2024-01-27T12:03:26;10.70;99.90
9209;DHT22;4639;48.862;9.188;2024-01-27T12:05:52;10.60;99.90
9209;DHT22;4639;48.862;9.188;2024-01-27T12:08:17;10.40;99.90
9209;DHT22;4639;48.862;9.188;2024-01-27T12:10:43;10.40;99.90
9209;DHT22;4639;48.862;9.188;2024-01-27T12:13:09;10.60;99.90
9209;DHT22;4639;48.862;9.188;2024-01-27T12:15:35;10.40;99.90
9209;DHT22;4639;48.862;9.188;2024-01-27T12:18:01;10.50;99.90
9209;DHT22;4639;48.862;9.188;2024-01-27T12:20:27;10.40;99.90
9209;DHT22;4639;48.862;9.188;2024-01-27T12:23:02;10.40;99.90
9209;DHT22;4639;48.862;9.188;2024-01-27T12:25:28;10.60;99.90
9209;DHT22;4639;48.862;9.188;2024-01-27T12:27:54;10.60;99.90
9209;DHT22;4639;48.862;9.188;2024-01-27T12:30:21;10.50;99.90
9209;DHT22;4639;48.862;9.188;2024-01-27T12:32:47;10.50;99.90
9209;DHT22;4639;48.862;9.188;2024-01-27T12:35:12;10.60;99.90
9209;DHT22;4639;48.862;9.188;2024-01-27T12:37:38;11.00;99.90
9209;DHT22;4639;48.862;9.188;2024-01-27T12:40:17;11.50;99.90
9209;DHT22;4639;48.862;9.188;2024-01-27T12:42:43;11.70;99.90
9209;DHT22;4639;48.862;9.188;2024-01-27T12:45:08;11.90;99.90
9209;DHT22;4639;48.862;9.188;2024-01-27T12:47:34;11.80;99.90
9209;DHT22;4639;48.862;9.188;2024-01-27T12:49:59;11.80;99.90
9209;DHT22;4639;48.862;9.188;2024-01-27T12:52:25;12.10;99.90
9209;DHT22;4639;48.862;9.188;2024-01-27T12:54:51;12.10;99.90
9209;DHT22;4639;48.862;9.188;2024-01-27T12:57:16;12.10;99.90
9209;DHT22;4639;48.862;9.188;2024-01-27T12:59:43;11.90;99.90
9209;DHT22;4639;48.862;9.188;2024-01-27T13:02:09;11.80;99.90
9209;DHT22;4639;48.862;9.188;2024-01-27T13:04:34;11.50;99.90
9209;DHT22;4639;48.862;9.188;2024-01-27T13:07:00;11.50;99.90
9209;DHT22;4639;48.862;9.188;2024-01-27T13:09:26;11.70;99.90
9209;DHT22;4639;48.862;9.188;2024-01-27T13:11:52;11.80;99.90
9209;DHT22;4639;48.862;9.188;2024-01-27T13:14:19;11.60;99.90
9209;DHT22;4639;48.862;9.188;2024-01-27T13:16:46;11.50;99.90
9209;DHT22;4639;48.862;9.188;2024-01-27T13:19:12;11.50;99.90
9209;DHT22;4639;48.862;9.188;2024-01-27T13:21:38;11.50;99.90
9209;DHT22;4639;48.862;9.188;2024-01-27T13:24:06;11.20;99.90
9209;DHT22;4639;48.862;9.188;2024-01-27T13:26:33;11.00;99.90
9209;DHT22;4639;48.862;9.188;2024-01-27T13:29:03;11.30;99.90
9209;DHT22;4639;48.862;9.188;2024-01-27T13:31:29;11.50;99.90
9209;DHT22;4639;48.862;9.188;2024-01-27T13:33:56;11.60;99.90
9209;DHT22;4639;48.862;9.188;2024-01-27T13:36:22;11.80;99.90
9209;DHT22;4639;48.862;9.188;2024-01-27T13:38:48;11.70;99.90
9209;DHT22;4639;48.862;9.188;2024-01-27T13:41:14;11.50;99.90
9209;DHT22;4639;48.862;9.188;2024-01-27T13:43:41;11.60;99.90
9209;DHT22;4639;48.862;9.188;2024-01-27T13:46:06;11.90;99.90
9209;DHT22;4639;48.862;9.188;2024-01-27T13:48:32;11.90;99.90
9209;DHT22;4639;48.862;9.188;2024-01-27T13:50:58;12.00;99.90
9209;DHT22;4639;48.862;9.188;2024-01-27T13:53:23;12.00;99.90
9209;DHT22;4639;48.862;9.188;2024-01-27T13:55:49;12.00;99.90
9209;DHT22;4639;48.862;9.188;2024-01-27T13:58:15;12.10;99.90
9209;DHT22;4639;48.862;9.188;2024-01-27T14:00:40;12.30;99.90
9209;DHT22;4639;48.862;9.188;2024-01-27T14:03:06;12.20;99.90
9209;DHT22;4639;48.862;9.188;2024-01-27T14:05:32;12.40;99.90
9209;DHT22;4639;48.862;9.188;2024-01-27T14:07:58;12.40;99.90
9209;DHT22;4639;48.862;9.188;2024-01-27T14:10:23;12.40;99.90
9209;DHT22;4639;48.862;9.188;2024-01-27T14:12:50;12.40;99.90
9209;DHT22;4639;48.862;9.188;2024-01-27T14:15:15;12.30;99.90
9209;DHT22;4639;48.862;9.188;2024-01-27T14:17:43;12.20;99.90
9209;DHT22;4639;48.862;9.188;2024-01-27T14:20:09;12.20;99.90
9209;DHT22;4639;48.862;9.188;2024-01-27T14:22:35;12.20;99.90
9209;DHT22;4639;48.862;9.188;2024-01-27T14:25:01;12.30;99.90
9209;DHT22;4639;48.862;9.188;2024-01-27T14:27:27;12.30;99.90
9209;DHT22;4639;48.862;9.188;2024-01-27T14:29:55;12.30;99.90
9209;DHT22;4639;48.862;9.188;2024-01-27T14:32:22;12.40;99.90
9209;DHT22;4639;48.862;9.188;2024-01-27T14:34:48;12.40;99.90
9209;DHT22;4639;48.862;9.188;2024-01-27T14:37:14;12.50;99.90
9209;DHT22;4639;48.862;9.188;2024-01-27T14:39:47;12.40;99.90
9209;DHT22;4639;48.862;9.188;2024-01-27T14:42:14;12.30;99.90
9209;DHT22;4639;48.862;9.188;2024-01-27T14:44:40;12.30;99.90
9209;DHT22;4639;48.862;9.188;2024-01-27T14:47:08;12.20;99.90
9209;DHT22;4639;48.862;9.188;2024-01-27T14:49:33;12.10;99.90
9209;DHT22;4639;48.862;9.188;2024-01-27T14:51:59;12.10;99.90
9209;DHT22;4639;48.862;9.188;2024-01-27T14:54:25;12.20;99.90
9209;DHT22;4639;48.862;9.188;2024-01-27T14:56:50;12.40;99.90
9209;DHT22;4639;48.862;9.188;2024-01-27T14:59:16;12.60;99.90
9209;DHT22;4639;48.862;9.188;2024-01-27T15:01:41;12.40;99.90
9209;DHT22;4639;48.862;9.188;2024-01-27T15:04:07;12.30;99.90
9209;DHT22;4639;48.862;9.188;2024-01-27T15:06:33;12.20;99.90
9209;DHT22;4639;48.862;9.188;2024-01-27T15:08:59;11.90;99.90
9209;DHT22;4639;48.862;9.188;2024-01-27T15:11:25;11.60;99.90
9209;DHT22;4639;48.862;9.188;2024-01-27T15:13:50;11.40;99.90
9209;DHT22;4639;48.862;9.188;2024-01-27T15:16:16;11.20;99.90
9209;DHT22;4639;48.862;9.188;2024-01-27T15:18:42;11.00;99.90
9209;DHT22;4639;48.862;9.188;2024-01-27T15:21:10;10.90;99.90
9209;DHT22;4639;48.862;9.188;2024-01-27T15:23:36;10.80;99.90
9209;DHT22;4639;48.862;9.188;2024-01-27T15:26:03;10.70;99.90
9209;DHT22;4639;48.862;9.188;2024-01-27T15:28:31;10.50;99.90
9209;DHT22;4639;48.862;9.188;2024-01-27T15:30:57;10.40;99.90
9209;DHT22;4639;48.862;9.188;2024-01-27T15:33:22;10.30;99.90
9209;DHT22;4639;48.862;9.188;2024-01-27T15:35:48;10.20;99.90
9209;DHT22;4639;48.862;9.188;2024-01-27T15:38:13;10.20;99.90
9209;DHT22;4639;48.862;9.188;2024-01-27T15:40:39;10.10;99.90
9209;DHT22;4639;48.862;9.188;2024-01-27T15:43:05;10.00;99.90
9209;DHT22;4639;48.862;9.188;2024-01-27T15:45:31;10.00;99.90
9209;DHT22;4639;48.862;9.188;2024-01-27T15:47:56;10.00;99.90
9209;DHT22;4639;48.862;9.188;2024-01-27T15:50:27;9.90;99.90
9209;DHT22;4639;48.862;9.188;2024-01-27T15:52:56;9.80;99.90
9209;DHT22;4639;48.862;9.188;2024-01-27T15:55:23;9.60;99.90
9209;DHT22;4639;48.862;9.188;2024-01-27T15:57:49;9.50;99.90
9209;DHT22;4639;48.862;9.188;2024-01-27T16:00:16;9.50;99.90
9209;DHT22;4639;48.862;9.188;2024-01-27T16:02:43;9.40;99.90
9209;DHT22;4639;48.862;9.188;2024-01-27T16:05:08;9.40;99.90